Terminal Aerodrome Forecast
Issued by NWS San Angelo, TX

Home | Current Version | Previous Version | Text Only | Print | Product List | Glossary On
Versions: 1 2 3 4 5 6 7 8 9 10 11 12 13 14 15 16 17 18 19 20 21 22
381
FTUS44 KSJT 281748
TAFSJT
TAF
KSJT 281748Z 2818/2918 18011G17KT P6SM SKC
     FM290200 16010KT P6SM SKC
     FM291500 18011G20KT P6SM FEW020=

USA.gov is the U.S. government's official web portal to all federal, state and local government web resources and services.